Glen, Montana
Current Conditions -  °F | °C
As of 5:53 PM on Saturday 20 Dec 2014 (Local Time) from KDLN Reporting Station
Broken Clouds Broken Clouds  
Wind Chill: 26°   Ceiling: 5500
Heat Index: 34°   Visibility: 10mi
Dew Point: 25°   Wind: 10mph
Humidity: 70%   Direction: 180°S
Pressure: 29.8"   Gusts: NA
Location:  45.48°N, 112.69°W
Report Text: KDLN 210053Z AUTO 18009KT 10SM BKN055 01/M04 A2980 RMK AO2 SLP111 T00111039
Loading
Personal Weather Stations






























Interactive Weather Map New forecast layout! Learn more

10-Day Weather Forecast

Advertisements
Track Severe Weather on mobile